createdAt,value
2022-10-19T00:00:03.176Z,75
2022-10-19T00:01:03.274Z,75
2022-10-19T00:02:02.946Z,75
2022-10-19T00:03:02.446Z,75
2022-10-19T00:04:04.869Z,75
2022-10-19T00:05:02.724Z,75
2022-10-19T00:06:02.581Z,75
2022-10-19T00:07:02.496Z,75
2022-10-19T00:08:03.104Z,75
2022-10-19T00:09:02.759Z,75
2022-10-19T00:10:02.644Z,75
2022-10-19T00:11:02.536Z,75
2022-10-19T00:12:02.093Z,75
2022-10-19T00:13:02.682Z,75
2022-10-19T00:14:02.192Z,75
2022-10-19T00:15:02.670Z,75
2022-10-19T00:16:02.230Z,75
2022-10-19T00:17:02.715Z,75
2022-10-19T00:18:03.364Z,75
2022-10-19T00:19:03.186Z,75
2022-10-19T00:20:03.015Z,75
2022-10-19T00:21:02.925Z,75
2022-10-19T00:22:02.833Z,75
2022-10-19T00:23:03.306Z,75
2022-10-19T00:24:03.149Z,75
2022-10-19T00:25:02.852Z,75
2022-10-19T00:26:03.512Z,75
2022-10-19T00:27:02.234Z,75
2022-10-19T00:28:02.088Z,75
2022-10-19T00:29:02.719Z,75
2022-10-19T00:30:02.378Z,75
2022-10-19T00:31:02.188Z,75
2022-10-19T00:32:02.772Z,75
2022-10-19T00:33:03.051Z,75
2022-10-19T00:34:02.859Z,75
2022-10-19T00:35:03.048Z,75
2022-10-19T00:36:02.931Z,75
2022-10-19T00:37:02.664Z,75
2022-10-19T00:38:02.888Z,75
2022-10-19T00:39:02.697Z,75
2022-10-19T00:40:03.235Z,75
2022-10-19T00:41:03.191Z,75
2022-10-19T00:42:03.035Z,75
2022-10-19T00:43:03.566Z,75
2022-10-19T00:44:03.541Z,75
2022-10-19T00:45:03.148Z,75
2022-10-19T00:46:02.989Z,75
2022-10-19T00:47:02.565Z,75
2022-10-19T00:48:03.048Z,75
2022-10-19T00:49:04.002Z,75
2022-10-19T00:50:02.520Z,75
2022-10-19T00:51:03.034Z,75
2022-10-19T00:52:02.699Z,75
2022-10-19T00:53:02.795Z,75
2022-10-19T00:54:02.997Z,75
2022-10-19T00:55:02.864Z,75
2022-10-19T00:56:02.791Z,75
2022-10-19T00:57:02.464Z,75
2022-10-19T00:58:02.867Z,75
2022-10-19T00:59:02.520Z,75
2022-10-19T01:00:02.428Z,75
2022-10-19T01:01:02.455Z,75
2022-10-19T01:02:03.104Z,75
2022-10-19T01:03:02.966Z,75
2022-10-19T01:04:02.927Z,75
2022-10-19T01:05:03.473Z,75
2022-10-19T01:06:03.081Z,75
2022-10-19T01:07:02.445Z,75
2022-10-19T01:08:02.951Z,75
2022-10-19T01:09:02.528Z,75
2022-10-19T01:10:03.066Z,75
2022-10-19T01:11:02.629Z,75
2022-10-19T01:12:03.123Z,75
2022-10-19T01:13:03.044Z,75
2022-10-19T01:14:02.905Z,75
2022-10-19T01:15:03.522Z,75
2022-10-19T01:16:03.132Z,75
2022-10-19T01:17:03.001Z,75
2022-10-19T01:18:02.561Z,75
2022-10-19T01:19:02.361Z,75
2022-10-19T01:20:02.851Z,75
2022-10-19T01:21:02.868Z,75
2022-10-19T01:22:02.505Z,75
2022-10-19T01:23:02.446Z,75
2022-10-19T01:24:02.396Z,75
2022-10-19T01:25:02.741Z,75
2022-10-19T01:26:02.491Z,75
2022-10-19T01:27:02.935Z,75
2022-10-19T01:28:02.884Z,75
2022-10-19T01:29:02.772Z,75
2022-10-19T01:30:03.492Z,75
2022-10-19T01:31:03.068Z,75
2022-10-19T01:32:02.702Z,75
2022-10-19T01:33:02.445Z,75
2022-10-19T01:34:02.907Z,75
2022-10-19T01:35:02.427Z,75
2022-10-19T01:36:02.867Z,75
2022-10-19T01:37:02.533Z,75
2022-10-19T01:38:02.306Z,75
2022-10-19T01:39:02.721Z,75
2022-10-19T01:40:02.452Z,75
2022-10-19T01:41:02.769Z,75
2022-10-19T01:42:03.517Z,75
2022-10-19T01:43:03.031Z,75
2022-10-19T01:44:03.545Z,75
2022-10-19T01:45:03.508Z,75
2022-10-19T01:46:03.538Z,75
2022-10-19T01:47:02.497Z,75
2022-10-19T01:48:02.542Z,75
2022-10-19T01:49:02.971Z,75
2022-10-19T01:50:02.815Z,75
2022-10-19T01:51:02.693Z,75
2022-10-19T01:52:03.192Z,75
2022-10-19T01:53:03.157Z,75
2022-10-19T01:54:03.125Z,75
2022-10-19T01:55:02.924Z,75
2022-10-19T01:56:03.028Z,75
2022-10-19T01:57:03.564Z,75
2022-10-19T01:58:06.241Z,75
2022-10-19T01:59:03.486Z,75
2022-10-19T02:00:03.349Z,75
2022-10-19T02:01:03.565Z,75
2022-10-19T02:02:02.921Z,75
2022-10-19T02:03:03.068Z,75
2022-10-19T02:04:02.904Z,75
2022-10-19T02:05:02.814Z,75
2022-10-19T02:06:02.637Z,75
2022-10-19T02:07:03.526Z,75
2022-10-19T02:08:02.935Z,75
2022-10-19T02:09:02.857Z,75
2022-10-19T02:10:02.884Z,75
2022-10-19T02:11:03.375Z,75
2022-10-19T02:12:02.629Z,75
2022-10-19T02:13:02.525Z,75
2022-10-19T02:14:02.524Z,75
2022-10-19T02:15:02.450Z,75
2022-10-19T02:16:02.367Z,75
2022-10-19T02:17:02.798Z,75
2022-10-19T02:18:02.646Z,75
2022-10-19T02:19:02.575Z,75
2022-10-19T02:20:02.342Z,75
2022-10-19T02:21:02.775Z,75
2022-10-19T02:22:02.969Z,75
2022-10-19T02:23:03.377Z,75
2022-10-19T02:24:02.877Z,75
2022-10-19T02:25:02.769Z,75
2022-10-19T02:26:03.526Z,75
2022-10-19T02:27:02.934Z,75
2022-10-19T02:28:02.549Z,75
2022-10-19T02:29:02.372Z,75
2022-10-19T02:30:02.889Z,75
2022-10-19T02:31:02.257Z,75
2022-10-19T02:32:03.499Z,75
2022-10-19T02:33:03.085Z,75
2022-10-19T02:34:02.916Z,75
2022-10-19T02:35:03.456Z,75
2022-10-19T02:36:03.202Z,75
2022-10-19T02:37:02.387Z,75
2022-10-19T02:38:02.760Z,75
2022-10-19T02:39:02.161Z,75
2022-10-19T02:40:02.769Z,75
2022-10-19T02:41:02.296Z,75
2022-10-19T02:42:02.812Z,75
2022-10-19T02:43:02.697Z,75
2022-10-19T02:44:02.663Z,75
2022-10-19T02:45:02.490Z,75
2022-10-19T02:46:02.474Z,75
2022-10-19T02:47:03.545Z,75
2022-10-19T02:48:03.531Z,75
2022-10-19T02:49:03.051Z,75
2022-10-19T02:50:03.140Z,75
2022-10-19T02:51:03.370Z,75
2022-10-19T02:52:03.043Z,75
2022-10-19T02:53:03.616Z,75
2022-10-19T02:54:05.195Z,75
2022-10-19T02:55:03.519Z,75
2022-10-19T02:56:03.121Z,75
2022-10-19T02:57:02.684Z,75
2022-10-19T02:58:03.213Z,75
2022-10-19T02:59:03.034Z,75
2022-10-19T03:00:02.832Z,75
2022-10-19T03:01:03.047Z,75
2022-10-19T03:02:01.921Z,75
2022-10-19T03:03:02.504Z,75
2022-10-19T03:04:02.031Z,75
2022-10-19T03:05:02.533Z,75
2022-10-19T03:06:02.075Z,75
2022-10-19T03:07:02.560Z,75
2022-10-19T03:08:03.121Z,75
2022-10-19T03:09:02.956Z,75
2022-10-19T03:10:02.858Z,75
2022-10-19T03:11:02.576Z,75
2022-10-19T03:12:02.007Z,75
2022-10-19T03:13:02.324Z,75
2022-10-19T03:14:02.579Z,75
2022-10-19T03:15:02.111Z,75
2022-10-19T03:16:02.608Z,75
2022-10-19T03:17:02.169Z,75
2022-10-19T03:18:02.014Z,75
2022-10-19T03:19:02.648Z,75
2022-10-19T03:20:02.619Z,75
2022-10-19T03:21:02.264Z,75
2022-10-19T03:22:02.853Z,75
2022-10-19T03:23:02.792Z,75
2022-10-19T03:24:03.359Z,75
2022-10-19T03:25:02.951Z,75
2022-10-19T03:26:02.726Z,75
2022-10-19T03:27:02.607Z,75
2022-10-19T03:28:02.468Z,75
2022-10-19T03:29:02.636Z,75
2022-10-19T03:30:02.527Z,75
2022-10-19T03:31:03.008Z,75
2022-10-19T03:32:02.830Z,75
2022-10-19T03:33:02.742Z,75
2022-10-19T03:34:02.584Z,75
2022-10-19T03:35:02.926Z,75
2022-10-19T03:36:02.801Z,75
2022-10-19T03:37:02.314Z,75
2022-10-19T03:38:02.286Z,75
2022-10-19T03:39:02.147Z,75
2022-10-19T03:40:02.690Z,75
2022-10-19T03:41:02.294Z,75
2022-10-19T03:42:02.146Z,75
2022-10-19T03:43:02.674Z,75
2022-10-19T03:44:02.626Z,75
2022-10-19T03:45:02.404Z,75
2022-10-19T03:46:02.247Z,75
2022-10-19T03:47:02.813Z,75
2022-10-19T03:48:02.587Z,75
2022-10-19T03:49:03.156Z,75
2022-10-19T03:50:03.136Z,75
2022-10-19T03:51:02.806Z,75
2022-10-19T03:52:02.319Z,75
2022-10-19T03:54:02.746Z,75
2022-10-19T03:55:02.574Z,75
2022-10-19T03:56:02.457Z,75
2022-10-19T03:57:02.790Z,75
2022-10-19T03:58:02.821Z,75
2022-10-19T03:59:02.936Z,75
2022-10-19T04:00:02.897Z,75
2022-10-19T04:01:03.025Z,75
2022-10-19T04:02:02.857Z,75
2022-10-19T04:03:02.655Z,75
2022-10-19T04:04:02.911Z,75
2022-10-19T04:05:02.590Z,75
2022-10-19T04:06:02.506Z,75
2022-10-19T04:07:02.195Z,75
2022-10-19T04:08:02.078Z,75
2022-10-19T04:09:02.034Z,75
2022-10-19T04:10:01.956Z,75
2022-10-19T04:11:01.742Z,75
2022-10-19T04:12:02.307Z,75
2022-10-19T04:13:02.186Z,75
2022-10-19T04:14:02.120Z,75
2022-10-19T04:15:02.267Z,75
2022-10-19T04:16:02.260Z,75
2022-10-19T04:17:02.887Z,75
2022-10-19T04:18:02.728Z,75
2022-10-19T04:19:02.559Z,75
2022-10-19T04:20:02.430Z,75
2022-10-19T04:21:02.471Z,75
2022-10-19T04:22:01.966Z,75
2022-10-19T04:23:01.773Z,75
2022-10-19T04:24:01.766Z,75
2022-10-19T04:25:01.624Z,75
2022-10-19T04:26:02.161Z,75
2022-10-19T04:27:02.831Z,75
2022-10-19T04:28:02.662Z,75
2022-10-19T04:29:02.567Z,75
2022-10-19T04:30:02.472Z,75
2022-10-19T04:31:02.416Z,74
2022-10-19T04:32:02.932Z,75
2022-10-19T04:33:02.761Z,75
2022-10-19T04:34:02.622Z,75
2022-10-19T04:35:02.528Z,75
2022-10-19T04:36:02.957Z,74
2022-10-19T04:37:02.679Z,75
2022-10-19T04:38:02.282Z,75
2022-10-19T04:39:02.591Z,75
2022-10-19T04:40:02.215Z,75
2022-10-19T04:41:02.049Z,75
2022-10-19T04:42:02.097Z,75
2022-10-19T04:43:02.664Z,75
2022-10-19T04:44:02.584Z,75
2022-10-19T04:45:02.483Z,75
2022-10-19T04:46:02.314Z,74
2022-10-19T04:47:02.941Z,75
2022-10-19T04:48:02.730Z,75
2022-10-19T04:49:02.741Z,75
2022-10-19T04:50:02.578Z,75
2022-10-19T04:51:02.381Z,74
2022-10-19T04:52:02.996Z,75
2022-10-19T04:53:02.810Z,75
2022-10-19T04:54:02.632Z,75
2022-10-19T04:55:02.444Z,75
2022-10-19T04:56:02.859Z,74
2022-10-19T04:57:02.494Z,75
2022-10-19T04:58:02.182Z,75
2022-10-19T04:59:02.043Z,75
2022-10-19T05:00:01.966Z,75
2022-10-19T05:01:02.025Z,75
2022-10-19T05:02:02.887Z,75
2022-10-19T05:03:02.610Z,75
2022-10-19T05:04:02.575Z,75
2022-10-19T05:05:02.467Z,75
2022-10-19T05:06:02.549Z,75
2022-10-19T05:07:03.088Z,75
2022-10-19T05:08:02.682Z,75
2022-10-19T05:09:02.497Z,75
2022-10-19T05:10:02.997Z,75
2022-10-19T05:11:02.770Z,75
2022-10-19T05:12:02.755Z,75
2022-10-19T05:13:03.229Z,75
2022-10-19T05:14:02.848Z,75
2022-10-19T05:15:02.786Z,75
2022-10-19T05:16:03.204Z,75
2022-10-19T05:17:03.744Z,75
2022-10-19T05:18:03.503Z,75
2022-10-19T05:19:03.410Z,75
2022-10-19T05:20:03.227Z,75
2022-10-19T05:21:03.820Z,75
2022-10-19T05:22:03.147Z,75
2022-10-19T05:23:06.304Z,75
2022-10-19T05:24:02.619Z,75
2022-10-19T05:25:03.161Z,75
2022-10-19T05:26:02.695Z,75
2022-10-19T05:27:03.004Z,75
2022-10-19T05:28:03.522Z,75
2022-10-19T05:29:03.243Z,75
2022-10-19T05:30:03.188Z,75
2022-10-19T05:31:03.086Z,75
2022-10-19T05:32:03.032Z,75
2022-10-19T05:33:03.518Z,75
2022-10-19T05:34:03.395Z,75
2022-10-19T05:35:03.499Z,75
2022-10-19T05:36:03.501Z,75
2022-10-19T05:37:02.939Z,75
2022-10-19T05:38:03.076Z,75
2022-10-19T05:39:02.742Z,75
2022-10-19T05:40:02.649Z,75
2022-10-19T05:41:02.485Z,75
2022-10-19T05:42:03.025Z,75
2022-10-19T05:43:03.597Z,75
2022-10-19T05:44:03.220Z,75
2022-10-19T05:45:03.202Z,75
2022-10-19T05:46:03.175Z,74
2022-10-19T05:47:03.521Z,75
2022-10-19T05:48:03.550Z,75
2022-10-19T05:49:03.340Z,75
2022-10-19T05:50:03.194Z,75
2022-10-19T05:51:03.072Z,75
2022-10-19T05:52:02.655Z,75
2022-10-19T05:53:02.838Z,75
2022-10-19T05:54:02.437Z,74
2022-10-19T05:55:02.280Z,75
2022-10-19T05:56:02.755Z,74
2022-10-19T05:57:02.667Z,75
2022-10-19T05:58:02.637Z,75
2022-10-19T05:59:03.220Z,75
2022-10-19T06:00:02.935Z,75
2022-10-19T06:01:02.903Z,75
2022-10-19T06:02:01.851Z,75
2022-10-19T06:03:01.675Z,75
2022-10-19T06:04:02.117Z,75
2022-10-19T06:05:01.962Z,75
2022-10-19T06:06:01.761Z,74
2022-10-19T06:07:02.429Z,75
2022-10-19T06:08:02.440Z,75
2022-10-19T06:09:02.443Z,75
2022-10-19T06:10:02.436Z,75
2022-10-19T06:11:02.374Z,75
2022-10-19T06:12:02.087Z,75
2022-10-19T06:13:02.338Z,75
2022-10-19T06:14:02.286Z,75
2022-10-19T06:15:02.149Z,75
2022-10-19T06:16:02.096Z,74
2022-10-19T06:17:02.084Z,75
2022-10-19T06:18:01.950Z,75
2022-10-19T06:19:01.902Z,75
2022-10-19T06:20:02.100Z,75
2022-10-19T06:21:02.017Z,75
2022-10-19T06:22:02.617Z,75
2022-10-19T06:23:02.628Z,75
2022-10-19T06:24:02.683Z,75
2022-10-19T06:25:02.724Z,75
2022-10-19T06:26:02.633Z,75
2022-10-19T06:27:01.965Z,75
2022-10-19T06:28:01.970Z,75
2022-10-19T06:29:01.894Z,75
2022-10-19T06:30:01.902Z,75
2022-10-19T06:31:02.087Z,75
2022-10-19T06:32:02.468Z,75
2022-10-19T06:34:02.614Z,75
2022-10-19T06:35:02.518Z,75
2022-10-19T06:36:02.446Z,74
2022-10-19T06:37:02.105Z,75
2022-10-19T06:38:02.046Z,75
2022-10-19T06:39:02.315Z,75
2022-10-19T06:40:06.729Z,74
2022-10-19T06:41:02.227Z,74
2022-10-19T06:42:02.140Z,75
2022-10-19T06:43:02.096Z,75
2022-10-19T06:44:02.061Z,75
2022-10-19T06:45:01.980Z,75
2022-10-19T06:46:01.885Z,75
2022-10-19T06:47:02.302Z,75
2022-10-19T06:48:05.056Z,75
2022-10-19T06:49:02.262Z,75
2022-10-19T06:50:02.074Z,75
2022-10-19T06:51:02.594Z,74
2022-10-19T06:52:02.359Z,75
2022-10-19T06:53:02.469Z,75
2022-10-19T06:54:02.258Z,75
2022-10-19T06:55:02.008Z,75
2022-10-19T06:56:02.653Z,75
2022-10-19T06:57:02.450Z,75
2022-10-19T06:58:02.554Z,75
2022-10-19T06:59:02.613Z,75
2022-10-19T07:00:02.514Z,75
2022-10-19T07:01:02.588Z,74
2022-10-19T07:02:03.146Z,75
2022-10-19T07:03:03.774Z,75
2022-10-19T07:04:03.528Z,75
2022-10-19T07:05:06.101Z,75
2022-10-19T07:06:03.539Z,75
2022-10-19T07:07:02.660Z,75
2022-10-19T07:08:03.170Z,75
2022-10-19T07:09:02.964Z,75
2022-10-19T07:10:03.031Z,75
2022-10-19T07:11:03.072Z,75
2022-10-19T07:12:02.845Z,75
2022-10-19T07:13:02.697Z,75
2022-10-19T07:14:03.230Z,75
2022-10-19T07:15:03.191Z,75
2022-10-19T07:16:02.902Z,75
2022-10-19T07:17:02.317Z,75
2022-10-19T07:18:02.325Z,75
2022-10-19T07:19:02.402Z,75
2022-10-19T07:20:02.687Z,75
2022-10-19T07:21:02.729Z,75
2022-10-19T07:22:02.752Z,75
2022-10-19T07:23:02.687Z,75
2022-10-19T07:24:02.730Z,75
2022-10-19T07:25:02.876Z,75
2022-10-19T07:26:02.863Z,74
2022-10-19T07:27:03.128Z,75
2022-10-19T07:28:02.946Z,75
2022-10-19T07:29:02.928Z,75
2022-10-19T07:30:02.803Z,74
2022-10-19T07:31:02.741Z,74
2022-10-19T07:32:03.536Z,75
2022-10-19T07:33:03.529Z,75
2022-10-19T07:34:03.290Z,75
2022-10-19T07:35:03.353Z,75
2022-10-19T07:36:03.499Z,74
2022-10-19T07:37:03.510Z,75
2022-10-19T07:38:03.187Z,75
2022-10-19T07:39:03.751Z,75
2022-10-19T07:40:03.166Z,75
2022-10-19T07:41:03.175Z,75
2022-10-19T07:42:02.873Z,75
2022-10-19T07:43:02.873Z,75
2022-10-19T07:44:02.821Z,75
2022-10-19T07:45:02.751Z,75
2022-10-19T07:46:02.772Z,74
2022-10-19T07:47:03.565Z,75
2022-10-19T07:48:03.561Z,75
2022-10-19T07:49:03.496Z,75
2022-10-19T07:50:03.511Z,75
2022-10-19T07:51:03.578Z,74
2022-10-19T07:52:03.210Z,75
2022-10-19T07:53:02.823Z,75
2022-10-19T07:54:02.792Z,75
2022-10-19T07:55:03.206Z,74
2022-10-19T07:56:02.732Z,74
2022-10-19T07:57:03.536Z,74
2022-10-19T07:58:03.528Z,74
2022-10-19T07:59:03.168Z,74
2022-10-19T08:00:03.005Z,74
2022-10-19T08:01:03.074Z,74
2022-10-19T08:02:02.540Z,74
2022-10-19T08:03:31.565Z,74
2022-10-19T08:05:06.193Z,75
2022-10-19T08:06:02.212Z,75
2022-10-19T08:07:02.911Z,75
2022-10-19T08:08:02.832Z,75
2022-10-19T08:09:02.880Z,75
2022-10-19T08:10:02.718Z,75
2022-10-19T08:11:02.991Z,75
2022-10-19T08:12:02.455Z,75
2022-10-19T08:13:02.214Z,75
2022-10-19T08:14:02.366Z,75
2022-10-19T08:15:02.379Z,75
2022-10-19T08:16:02.142Z,74
2022-10-19T08:17:02.802Z,75
2022-10-19T08:18:02.777Z,75
2022-10-19T08:19:02.571Z,75
2022-10-19T08:20:02.302Z,75
2022-10-19T08:21:02.269Z,75
2022-10-19T08:22:02.075Z,75
2022-10-19T08:23:02.046Z,75
2022-10-19T08:24:01.967Z,75
2022-10-19T08:25:02.464Z,75
2022-10-19T08:26:02.100Z,74
2022-10-19T08:27:02.611Z,75
2022-10-19T08:28:02.391Z,75
2022-10-19T08:29:02.377Z,75
2022-10-19T08:30:02.678Z,75
2022-10-19T08:31:02.681Z,74
2022-10-19T08:32:02.982Z,75
2022-10-19T08:33:02.920Z,75
2022-10-19T08:34:02.852Z,75
2022-10-19T08:35:06.003Z,75
2022-10-19T08:36:02.733Z,74
2022-10-19T08:37:10.326Z,75
2022-10-19T08:38:03.097Z,74
2022-10-19T08:39:02.917Z,75
2022-10-19T08:40:02.767Z,75
2022-10-19T08:41:02.640Z,74
2022-10-19T08:42:02.760Z,75
2022-10-19T08:43:02.831Z,75
2022-10-19T08:44:06.234Z,75
2022-10-19T08:45:03.535Z,74
2022-10-19T08:46:03.294Z,74
2022-10-19T08:47:02.752Z,75
2022-10-19T08:48:02.802Z,75
2022-10-19T08:49:02.771Z,75
2022-10-19T08:50:02.633Z,75
2022-10-19T08:51:02.522Z,74
2022-10-19T08:52:02.717Z,75
2022-10-19T08:53:03.088Z,75
2022-10-19T08:54:02.838Z,74
2022-10-19T08:55:03.530Z,74
2022-10-19T08:56:04.477Z,74
2022-10-19T08:57:02.809Z,75
2022-10-19T08:58:02.367Z,74
2022-10-19T08:59:02.316Z,75
2022-10-19T09:00:02.298Z,75
2022-10-19T09:01:02.295Z,74
2022-10-19T09:02:02.520Z,74
2022-10-19T09:03:02.443Z,75
2022-10-19T09:04:02.764Z,75
2022-10-19T09:05:02.801Z,75
2022-10-19T09:06:02.469Z,74
2022-10-19T09:07:03.519Z,75
2022-10-19T09:08:03.441Z,74
2022-10-19T09:09:03.550Z,75
2022-10-19T09:10:03.532Z,75
2022-10-19T09:11:03.258Z,74
2022-10-19T09:12:02.262Z,74
2022-10-19T09:13:02.501Z,74
2022-10-19T09:14:06.315Z,74
2022-10-19T09:15:02.411Z,74
2022-10-19T09:16:02.342Z,74
2022-10-19T09:17:03.454Z,74
2022-10-19T09:18:02.819Z,74
2022-10-19T09:19:02.899Z,74
2022-10-19T09:20:02.945Z,74
2022-10-19T09:21:02.860Z,74
2022-10-19T09:22:03.021Z,74
2022-10-19T09:23:02.427Z,74
2022-10-19T09:24:02.947Z,74
2022-10-19T09:25:02.923Z,74
2022-10-19T09:26:02.869Z,74
2022-10-19T09:27:03.028Z,74
2022-10-19T09:28:03.047Z,74
2022-10-19T09:29:02.968Z,74
2022-10-19T09:30:03.052Z,74
2022-10-19T09:31:02.979Z,74
2022-10-19T09:32:02.702Z,74
2022-10-19T09:33:02.895Z,74
2022-10-19T09:34:02.534Z,74
2022-10-19T09:35:02.537Z,74
2022-10-19T09:36:02.921Z,74
2022-10-19T09:37:02.972Z,74
2022-10-19T09:38:03.032Z,74
2022-10-19T09:39:03.018Z,74
2022-10-19T09:40:02.983Z,74
2022-10-19T09:41:02.963Z,74
2022-10-19T09:42:02.955Z,74
2022-10-19T09:43:03.035Z,74
2022-10-19T09:44:03.090Z,74
2022-10-19T09:45:03.076Z,74
2022-10-19T09:46:05.050Z,74
2022-10-19T09:47:03.025Z,74
2022-10-19T09:48:08.686Z,74
2022-10-19T09:49:03.358Z,74
2022-10-19T09:50:03.145Z,74
2022-10-19T09:51:02.999Z,74
2022-10-19T09:52:02.834Z,74
2022-10-19T09:53:02.975Z,74
2022-10-19T09:54:02.388Z,74
2022-10-19T09:55:02.738Z,74
2022-10-19T09:56:02.741Z,74
2022-10-19T09:57:03.379Z,74
2022-10-19T09:58:03.509Z,74
2022-10-19T09:59:03.494Z,74
2022-10-19T10:00:03.472Z,74
2022-10-19T10:01:03.674Z,74
2022-10-19T10:03:03.584Z,74
2022-10-19T10:04:03.704Z,74
2022-10-19T10:05:03.400Z,74
2022-10-19T10:06:03.545Z,74
2022-10-19T10:07:02.750Z,74
2022-10-19T10:08:02.553Z,74
2022-10-19T10:09:02.708Z,74
2022-10-19T10:10:02.926Z,74
2022-10-19T10:11:02.522Z,74
2022-10-19T10:12:02.957Z,74
2022-10-19T10:13:02.801Z,73
2022-10-19T10:14:04.978Z,73
2022-10-19T10:15:03.269Z,73
2022-10-19T10:16:02.684Z,73
2022-10-19T10:17:03.522Z,73
2022-10-19T10:18:03.313Z,73
2022-10-19T10:19:03.300Z,73
2022-10-19T10:20:03.531Z,73
2022-10-19T10:21:05.908Z,72
2022-10-19T10:22:03.147Z,72
2022-10-19T10:23:03.165Z,72
2022-10-19T10:24:02.923Z,72
2022-10-19T10:25:02.907Z,72
2022-10-19T10:26:03.094Z,72
2022-10-19T10:27:03.491Z,72
2022-10-19T10:28:03.548Z,72
2022-10-19T10:29:03.325Z,72
2022-10-19T10:30:03.510Z,72
2022-10-19T10:31:03.513Z,72
2022-10-19T10:32:02.779Z,72
2022-10-19T10:33:13.426Z,71
2022-10-19T10:34:11.078Z,71
2022-10-19T10:35:02.323Z,71
2022-10-19T10:36:02.648Z,71
2022-10-19T10:37:02.934Z,71
2022-10-19T10:38:02.878Z,71
2022-10-19T10:40:03.957Z,70
2022-10-19T10:41:03.036Z,70
2022-10-19T10:42:02.965Z,70
2022-10-19T10:43:02.821Z,70
2022-10-19T10:44:04.779Z,70
2022-10-19T10:45:03.115Z,69
2022-10-19T10:46:02.801Z,69
2022-10-19T10:47:03.190Z,69
2022-10-19T10:48:02.757Z,69
2022-10-19T10:49:03.183Z,69
2022-10-19T10:50:02.923Z,69
2022-10-19T10:51:02.978Z,69
2022-10-19T10:52:03.423Z,69
2022-10-19T10:53:03.503Z,69
2022-10-19T10:54:03.040Z,69
2022-10-19T10:55:03.013Z,69
2022-10-19T10:56:03.502Z,68
2022-10-19T10:57:04.417Z,68
2022-10-19T10:58:03.759Z,68
2022-10-19T10:59:03.486Z,68
2022-10-19T11:00:03.141Z,68
2022-10-19T11:01:06.705Z,68
2022-10-19T11:02:03.009Z,68
2022-10-19T11:03:02.706Z,68
2022-10-19T11:04:02.838Z,68
2022-10-19T11:05:02.583Z,67
2022-10-19T11:06:03.022Z,67
2022-10-19T11:07:02.584Z,67
2022-10-19T11:08:02.010Z,67
2022-10-19T11:09:02.197Z,67
2022-10-19T11:10:02.199Z,67
2022-10-19T11:11:02.443Z,67
2022-10-19T11:12:02.626Z,67
2022-10-19T11:13:02.642Z,67
2022-10-19T11:14:02.780Z,67
2022-10-19T11:15:02.865Z,67
2022-10-19T11:16:02.241Z,67
2022-10-19T11:17:03.191Z,67
2022-10-19T11:18:02.721Z,67
2022-10-19T11:19:02.774Z,67
2022-10-19T11:20:02.844Z,66
2022-10-19T11:21:02.623Z,66
2022-10-19T11:22:02.818Z,66
2022-10-19T11:23:02.709Z,66
2022-10-19T11:24:02.776Z,66
2022-10-19T11:25:02.637Z,66
2022-10-19T11:26:02.249Z,66
2022-10-19T11:27:03.505Z,66
2022-10-19T11:28:03.514Z,66
2022-10-19T11:29:02.936Z,66
2022-10-19T11:30:03.211Z,66
2022-10-19T11:31:02.885Z,65
2022-10-19T11:32:02.436Z,65
2022-10-19T11:33:02.550Z,65
2022-10-19T11:34:02.758Z,65
2022-10-19T11:35:02.451Z,65
2022-10-19T11:36:02.465Z,65
2022-10-19T11:37:02.635Z,65
2022-10-19T11:38:21.148Z,65
2022-10-19T11:39:03.146Z,65
2022-10-19T11:40:03.208Z,65
2022-10-19T11:41:19.146Z,65
2022-10-19T11:42:02.867Z,65
2022-10-19T11:43:03.520Z,65
2022-10-19T11:44:02.929Z,65
2022-10-19T11:45:03.046Z,65
2022-10-19T11:46:03.502Z,65
2022-10-19T11:47:03.520Z,65
2022-10-19T11:48:02.682Z,65
2022-10-19T11:49:02.741Z,65
2022-10-19T11:50:02.625Z,65
2022-10-19T11:51:20.540Z,65
2022-10-19T11:52:02.848Z,65
2022-10-19T11:53:02.080Z,65
2022-10-19T11:54:02.102Z,65
2022-10-19T11:55:02.527Z,65
2022-10-19T11:56:02.297Z,65
2022-10-19T11:57:04.729Z,65
2022-10-19T11:58:03.155Z,65
2022-10-19T11:59:02.709Z,65
2022-10-19T12:00:14.064Z,65
2022-10-19T12:01:03.075Z,65
2022-10-19T12:02:03.334Z,65
2022-10-19T12:03:03.818Z,65
2022-10-19T12:04:02.074Z,65
2022-10-19T12:05:02.236Z,65
2022-10-19T12:06:02.007Z,65
2022-10-19T12:07:02.379Z,65
2022-10-19T12:08:02.092Z,64
2022-10-19T12:09:02.267Z,64
2022-10-19T12:10:02.531Z,64
2022-10-19T12:11:02.304Z,64
2022-10-19T12:12:02.457Z,64
2022-10-19T12:13:02.430Z,64
2022-10-19T12:14:02.637Z,64
2022-10-19T12:15:02.390Z,64
2022-10-19T12:16:02.559Z,64
2022-10-19T12:17:02.428Z,64
2022-10-19T12:18:02.404Z,64
2022-10-19T12:19:02.514Z,64
2022-10-19T12:20:02.440Z,64
2022-10-19T12:21:02.668Z,64
2022-10-19T12:22:02.463Z,64
2022-10-19T12:23:02.112Z,65
2022-10-19T12:24:02.343Z,65
2022-10-19T12:25:01.940Z,65
2022-10-19T12:26:01.989Z,64
2022-10-19T12:27:01.883Z,64
2022-10-19T12:28:02.453Z,64
2022-10-19T12:29:02.258Z,64
2022-10-19T12:30:02.236Z,64
2022-10-19T12:31:02.380Z,64
2022-10-19T12:32:02.641Z,64
2022-10-19T12:33:02.788Z,64
2022-10-19T12:34:02.400Z,64
2022-10-19T12:35:02.399Z,64
2022-10-19T12:36:02.561Z,63
2022-10-19T12:37:02.333Z,63
2022-10-19T12:38:02.067Z,63
2022-10-19T12:39:01.679Z,63
2022-10-19T12:40:01.723Z,63
2022-10-19T12:41:02.068Z,63
2022-10-19T12:42:02.158Z,63
2022-10-19T12:43:02.333Z,63
2022-10-19T12:44:02.381Z,63
2022-10-19T12:45:02.091Z,63
2022-10-19T12:46:02.326Z,63
2022-10-19T12:47:02.136Z,63
2022-10-19T12:48:02.955Z,63
2022-10-19T12:49:02.845Z,63
2022-10-19T12:50:03.042Z,63
2022-10-19T12:51:02.473Z,63
2022-10-19T12:52:02.895Z,63
2022-10-19T12:53:02.652Z,63
2022-10-19T12:54:02.997Z,63
2022-10-19T12:55:02.996Z,63
2022-10-19T12:56:02.455Z,63
2022-10-19T12:57:02.841Z,63
2022-10-19T12:58:02.338Z,63
2022-10-19T12:59:02.216Z,63
2022-10-19T13:00:02.475Z,63
2022-10-19T13:01:02.557Z,63
2022-10-19T13:02:02.486Z,64
2022-10-19T13:03:02.812Z,64
2022-10-19T13:04:03.054Z,64
2022-10-19T13:05:02.992Z,64
2022-10-19T13:06:02.756Z,64
2022-10-19T13:07:02.733Z,65
2022-10-19T13:08:03.534Z,65
2022-10-19T13:09:03.000Z,65
2022-10-19T13:10:03.487Z,65
2022-10-19T13:11:03.488Z,65
2022-10-19T13:12:03.059Z,65
2022-10-19T13:13:03.481Z,65
2022-10-19T13:14:03.662Z,65
2022-10-19T13:15:03.494Z,65
2022-10-19T13:16:03.453Z,65
2022-10-19T13:17:03.461Z,65
2022-10-19T13:18:02.882Z,65
2022-10-19T13:19:02.627Z,65
2022-10-19T13:20:03.023Z,65
2022-10-19T13:21:03.716Z,65
2022-10-19T13:22:03.128Z,65
2022-10-19T13:23:03.775Z,65
2022-10-19T13:24:03.394Z,65
2022-10-19T13:25:05.963Z,65
2022-10-19T13:26:03.804Z,65
2022-10-19T13:27:03.623Z,65
2022-10-19T13:28:03.317Z,65
2022-10-19T13:29:03.319Z,65
2022-10-19T13:30:03.336Z,66
2022-10-19T13:31:08.150Z,65
2022-10-19T13:32:02.797Z,65
2022-10-19T13:33:02.680Z,66
2022-10-19T13:34:02.591Z,66
2022-10-19T13:35:02.660Z,65
2022-10-19T13:36:02.860Z,65
2022-10-19T13:37:02.915Z,65
2022-10-19T13:38:02.546Z,66
2022-10-19T13:39:02.686Z,66
2022-10-19T13:40:02.598Z,66
2022-10-19T13:41:02.606Z,65
2022-10-19T13:42:03.149Z,66
2022-10-19T13:43:03.589Z,66
2022-10-19T13:44:03.834Z,66
2022-10-19T13:45:03.619Z,66
2022-10-19T13:46:03.772Z,66
2022-10-19T13:47:03.670Z,66
2022-10-19T13:48:02.668Z,66
2022-10-19T13:49:03.061Z,66
2022-10-19T13:50:03.046Z,66
2022-10-19T13:51:03.165Z,66
2022-10-19T13:52:02.974Z,66
2022-10-19T13:53:02.998Z,66
2022-10-19T13:54:03.243Z,66
2022-10-19T13:55:03.186Z,66
2022-10-19T13:56:03.137Z,66
2022-10-19T13:57:03.224Z,66
2022-10-19T13:58:03.822Z,66
2022-10-19T13:59:03.688Z,66
2022-10-19T14:00:03.444Z,66
2022-10-19T14:01:03.295Z,66
2022-10-19T14:02:03.413Z,66
2022-10-19T14:03:05.430Z,66
2022-10-19T14:04:02.372Z,66
2022-10-19T14:05:02.835Z,66
2022-10-19T14:06:02.514Z,66
2022-10-19T14:07:02.393Z,66
2022-10-19T14:08:02.572Z,66
2022-10-19T14:09:03.129Z,66
2022-10-19T14:10:02.729Z,66
2022-10-19T14:11:02.623Z,66
2022-10-19T14:12:02.518Z,66
2022-10-19T14:13:03.578Z,66
2022-10-19T14:14:03.227Z,66
2022-10-19T14:15:03.276Z,66
2022-10-19T14:16:03.469Z,66
2022-10-19T14:17:04.489Z,66
2022-10-19T14:18:05.842Z,66
2022-10-19T14:19:02.942Z,67
2022-10-19T14:20:02.923Z,66